Time;durP1;ratioP1;P1;durP2;ratioP2;P2;SDS_P1;SDS_P2;PMS_P1;PMS_P2;Temp;Humidity;BMP_temperature;BMP_pressure;BME280_temperature;BME280_humidity;BME280_pressure;Samples;Min_cycle;Max_cycle;Signal;HPM_P1;HPM_P2
2022/08/02 00:01:45;;;;;;;1999.90;999.90;;;;;;;18.64;100.00;93914.88;5075107;28;20192;-61
2022/08/02 00:04:10;;;;;;;1999.90;999.90;;;;;;;18.60;100.00;93922.63;5073725;28;20177;-61
2022/08/02 00:06:36;;;;;;;1999.90;999.90;;;;;;;18.66;100.00;93923.44;5057372;28;20251;-62
2022/08/02 00:09:03;;;;;;;1999.90;999.90;;;;;;;18.67;100.00;93928.50;5057231;28;20300;-64
2022/08/02 00:11:28;;;;;;;1999.90;999.90;;;;;;;18.71;100.00;93947.63;5057296;28;20268;-66
2022/08/02 00:13:54;;;;;;;1999.90;999.90;;;;;;;18.71;100.00;93978.81;5074350;28;20313;-62
2022/08/02 00:16:20;;;;;;;1999.90;999.90;;;;;;;18.68;100.00;94006.69;5057482;28;20189;-64
2022/08/02 00:18:45;;;;;;;1999.90;999.90;;;;;;;18.69;100.00;94039.38;5056889;28;20185;-65
2022/08/02 00:21:10;;;;;;;1999.90;999.90;;;;;;;18.70;100.00;94067.81;5073661;28;20189;-59
2022/08/02 00:23:36;;;;;;;1999.90;999.90;;;;;;;18.65;100.00;94066.50;5057247;28;20185;-60
2022/08/02 00:26:01;;;;;;;1999.90;999.90;;;;;;;18.57;100.00;94062.66;5057167;28;20177;-59
2022/08/02 00:28:27;;;;;;;1999.90;999.90;;;;;;;18.56;100.00;94065.91;5073630;28;20200;-60
2022/08/02 00:30:52;;;;;;;1999.90;999.90;;;;;;;18.51;100.00;94066.59;5057025;28;20200;-60
2022/08/02 00:33:17;;;;;;;1999.90;999.90;;;;;;;18.53;100.00;94064.09;5074388;28;20197;-60
2022/08/02 00:35:46;;;;;;;1999.90;999.90;;;;;;;18.52;100.00;94057.06;5073770;28;20181;-63
2022/08/02 00:38:12;;;;;;;1999.90;999.90;;;;;;;18.50;100.00;94062.34;5056663;28;20245;-60
2022/08/02 00:40:37;;;;;;;1999.90;999.90;;;;;;;18.45;100.00;94047.19;5056655;28;20260;-67
2022/08/02 00:43:06;;;;;;;1999.90;999.90;;;;;;;18.49;100.00;94024.84;5074311;28;20181;-67
2022/08/02 00:45:34;;;;;;;1999.90;999.90;;;;;;;18.49;100.00;93997.19;5057181;28;20184;-65
2022/08/02 00:47:59;;;;;;;1999.90;999.90;;;;;;;18.48;100.00;93984.63;5057019;28;20235;-73
2022/08/02 00:50:26;;;;;;;1999.90;999.90;;;;;;;18.51;100.00;93975.34;5056489;28;20208;-66
2022/08/02 00:52:51;;;;;;;1999.90;999.90;;;;;;;18.51;100.00;93961.53;5056497;28;20198;-63
2022/08/02 00:55:16;;;;;;;1999.90;999.90;;;;;;;18.48;100.00;93941.16;5056546;28;20180;-62
2022/08/02 00:57:42;;;;;;;1999.90;999.90;;;;;;;18.52;100.00;93946.44;5056458;28;20181;-62
2022/08/02 01:00:08;;;;;;;1999.90;999.90;;;;;;;18.51;100.00;93923.56;5056393;28;20181;-62
2022/08/02 01:02:33;;;;;;;1999.90;999.90;;;;;;;18.48;100.00;93918.25;5056680;28;20185;-62
2022/08/02 01:04:59;;;;;;;1999.90;999.90;;;;;;;18.49;100.00;93915.00;5055871;28;20196;-64
2022/08/02 01:07:25;;;;;;;1999.90;999.90;;;;;;;18.49;100.00;93906.72;5056352;28;20181;-62
2022/08/02 01:09:50;;;;;;;1999.90;999.90;;;;;;;18.51;100.00;93895.16;5073015;28;20215;-62
2022/08/02 01:12:16;;;;;;;1999.90;999.90;;;;;;;18.45;100.00;93897.13;5055787;28;20205;-62
2022/08/02 01:14:46;;;;;;;1999.90;999.90;;;;;;;18.45;100.00;93883.28;5073165;28;20187;-61
2022/08/02 01:17:48;;;;;;;1999.90;999.90;;;;;;;18.42;100.00;93871.22;5056363;28;20255;-57
2022/08/02 01:20:41;;;;;;;1999.90;999.90;;;;;;;18.44;100.00;93874.25;5074099;28;20264;-59
2022/08/02 01:23:24;;;;;;;1999.90;999.90;;;;;;;18.48;100.00;93874.03;5056456;28;20209;-59
2022/08/02 01:26:01;;;;;;;1999.90;999.90;;;;;;;18.45;100.00;93858.41;5056527;28;20242;-59
2022/08/02 01:28:46;;;;;;;1999.90;999.90;;;;;;;18.40;100.00;93857.13;5072494;28;20185;-60
2022/08/02 01:31:30;;;;;;;1999.90;999.90;;;;;;;18.40;100.00;93850.84;5056320;28;20184;-61
2022/08/02 01:34:04;;;;;;;1999.90;999.90;;;;;;;18.45;100.00;93866.72;5056456;28;20216;-69
2022/08/02 01:36:36;;;;;;;1999.90;999.90;;;;;;;18.41;100.00;93860.66;5056302;28;20254;-72
2022/08/02 01:39:04;;;;;;;1999.90;999.90;;;;;;;18.41;100.00;93863.41;5056098;28;20228;-70
2022/08/02 01:41:31;;;;;;;1999.90;999.90;;;;;;;18.37;100.00;93836.00;5055879;28;20177;-72
2022/08/02 01:43:59;;;;;;;1999.90;999.90;;;;;;;18.37;100.00;93802.06;5056353;28;20188;-72
2022/08/02 01:46:27;;;;;;;1999.90;999.90;;;;;;;18.36;100.00;93789.50;5056220;28;20195;-80
2022/08/02 01:48:55;;;;;;;1999.90;999.90;;;;;;;18.32;100.00;93772.34;5056138;28;20193;-69
2022/08/02 01:54:10;;;;;;;1999.90;999.90;;;;;;;18.27;100.00;93778.59;5074003;28;20254;-68
2022/08/02 01:56:36;;;;;;;1999.90;999.90;;;;;;;18.25;100.00;93761.75;5055701;28;20196;-69
2022/08/02 01:59:04;;;;;;;1999.90;999.90;;;;;;;18.18;100.00;93767.72;5072419;28;20280;-70
2022/08/02 02:01:34;;;;;;;1999.90;999.90;;;;;;;18.15;100.00;93763.19;5055761;28;20208;-67
2022/08/02 02:04:01;;;;;;;1999.90;999.90;;;;;;;18.08;100.00;93760.88;5056282;28;20266;-69
2022/08/02 02:06:27;;;;;;;1999.90;999.90;;;;;;;18.05;100.00;93754.31;5055629;28;20189;-73
2022/08/02 02:08:53;;;;;;;1999.90;999.90;;;;;;;18.01;100.00;93736.44;5056006;28;20209;-63
2022/08/02 02:11:20;;;;;;;1999.90;999.90;;;;;;;17.97;100.00;93728.41;5072263;28;20196;-51
2022/08/02 02:13:46;;;;;;;1999.90;999.90;;;;;;;17.92;100.00;93714.53;5055515;28;20212;-54
2022/08/02 02:16:14;;;;;;;1999.90;999.90;;;;;;;17.86;100.00;93700.69;5057710;28;20189;-54
2022/08/02 02:18:42;;;;;;;1999.90;999.90;;;;;;;17.81;100.00;93679.28;5058901;28;20212;-57
2022/08/02 02:21:08;;;;;;;1999.90;999.90;;;;;;;17.79;100.00;93656.94;5058903;28;20268;-58
2022/08/02 02:23:34;;;;;;;1999.90;999.90;;;;;;;17.78;100.00;93641.59;5058864;28;20226;-58
2022/08/02 02:26:02;;;;;;;1999.90;999.90;;;;;;;17.75;100.00;93628.03;5059488;28;20200;-67
2022/08/02 02:28:30;;;;;;;1999.90;999.90;;;;;;;17.76;100.00;93618.50;5058820;28;20195;-60
2022/08/02 02:31:18;;;;;;;1999.90;999.90;;;;;;;17.79;100.00;93614.75;5058605;28;20192;-61
2022/08/02 02:33:49;;;;;;;1999.90;999.90;;;;;;;17.80;100.00;93607.97;5059197;28;20217;-63
2022/08/02 02:36:17;;;;;;;1999.90;999.90;;;;;;;17.84;100.00;93611.25;5059294;28;20196;-60
2022/08/02 02:38:44;;;;;;;1999.90;999.90;;;;;;;17.84;100.00;93612.03;5059194;28;20185;-61
2022/08/02 02:41:11;;;;;;;1999.90;999.90;;;;;;;17.87;100.00;93616.56;5075286;28;20230;-64
2022/08/02 02:43:38;;;;;;;1999.90;999.90;;;;;;;17.89;100.00;93605.03;5058496;28;20189;-60
2022/08/02 02:46:05;;;;;;;1999.90;999.90;;;;;;;17.93;100.00;93597.25;5058539;28;20272;-60
2022/08/02 02:48:32;;;;;;;1999.90;999.90;;;;;;;17.94;100.00;93598.78;5058482;28;20191;-61
2022/08/02 02:50:59;;;;;;;1999.90;999.90;;;;;;;17.95;100.00;93608.59;5076508;28;20189;-59
2022/08/02 02:53:25;;;;;;;1999.90;999.90;;;;;;;17.99;100.00;93600.81;5058438;28;20207;-60
2022/08/02 02:55:52;;;;;;;1999.90;999.90;;;;;;;18.04;100.00;93602.84;5074942;28;20173;-61
2022/08/02 02:58:18;;;;;;;1999.90;999.90;;;;;;;18.04;100.00;93613.91;5058715;28;20188;-64
2022/08/02 03:03:29;;;;;;;1999.90;999.90;;;;;;;18.08;100.00;93636.53;5076229;28;20634;-71
2022/08/02 03:05:54;;;;;;;1999.90;999.90;;;;;;;18.15;100.00;93658.16;5058211;28;20181;-61
2022/08/02 03:08:20;;;;;;;1999.90;999.90;;;;;;;18.17;100.00;93666.75;5058350;28;20185;-62
2022/08/02 03:10:46;;;;;;;1999.90;999.90;;;;;;;18.19;100.00;93672.50;5074718;28;20185;-62
2022/08/02 03:13:12;;;;;;;1999.90;999.90;;;;;;;18.21;100.00;93683.84;5058219;28;20248;-61
2022/08/02 03:15:38;;;;;;;1999.90;999.90;;;;;;;18.23;100.00;93684.09;5058600;28;20181;-61
2022/08/02 03:18:06;;;;;;;1999.90;999.90;;;;;;;18.20;100.00;93701.66;5058160;28;20193;-61
2022/08/02 03:20:32;;;;;;;1999.90;999.90;;;;;;;18.15;100.00;93708.69;5075197;28;20211;-61
2022/08/02 03:22:57;;;;;;;1999.90;999.90;;;;;;;18.13;100.00;93721.44;5058232;28;20225;-69
2022/08/02 03:25:22;;;;;;;1999.90;999.90;;;;;;;18.12;100.00;93722.72;5058016;28;20192;-59
2022/08/02 03:27:48;;;;;;;1999.90;999.90;;;;;;;18.12;100.00;93736.53;5073922;28;20182;-57
2022/08/02 03:30:14;;;;;;;1999.90;999.90;;;;;;;18.10;100.00;93764.66;5074835;28;20192;-59
2022/08/02 03:32:42;;;;;;;1999.90;999.90;;;;;;;18.09;100.00;93765.13;5057922;28;20205;-59
2022/08/02 03:35:09;;;;;;;1999.90;999.90;;;;;;;18.06;100.00;93750.31;5057805;28;20188;-59
2022/08/02 03:37:36;;;;;;;1999.90;999.90;;;;;;;18.02;100.00;93740.72;5057241;28;20641;-60
2022/08/02 03:40:05;;;;;;;1999.90;999.90;;;;;;;18.05;100.00;93734.97;5075690;28;20196;-71
2022/08/02 03:42:31;;;;;;;1999.90;999.90;;;;;;;18.00;100.00;93729.41;5057832;28;20193;-61
2022/08/02 03:44:58;;;;;;;1999.90;999.90;;;;;;;17.97;100.00;93716.56;5074262;28;20269;-65
2022/08/02 03:47:25;;;;;;;1999.90;999.90;;;;;;;17.93;100.00;93718.81;5057300;28;20201;-67
2022/08/02 03:49:52;;;;;;;1999.90;999.90;;;;;;;17.86;100.00;93719.25;5057683;28;20185;-66
2022/08/02 03:52:18;;;;;;;1999.90;999.90;;;;;;;17.81;100.00;93698.63;5057453;28;20205;-68
2022/08/02 03:54:44;;;;;;;1999.90;999.90;;;;;;;17.79;100.00;93697.59;5074032;28;20189;-67
2022/08/02 03:57:09;;;;;;;1999.90;999.90;;;;;;;17.76;100.00;93704.09;5057237;28;20189;-69
2022/08/02 03:59:53;;;;;;;1999.90;999.90;;;;;;;17.75;100.00;93702.59;5057339;28;20197;-58
2022/08/02 04:02:18;;;;;;;1999.90;999.90;;;;;;;17.76;100.00;93698.59;5057972;28;20280;-60
2022/08/02 04:04:43;;;;;;;1999.90;999.90;;;;;;;17.77;100.00;93678.03;5057475;28;20215;-60
2022/08/02 04:07:09;;;;;;;1999.90;999.90;;;;;;;17.78;100.00;93685.06;5073929;28;20187;-60
2022/08/02 04:09:34;;;;;;;1999.90;999.90;;;;;;;17.81;100.00;93681.31;5074296;28;20295;-58
2022/08/02 04:12:00;;;;;;;1999.90;999.90;;;;;;;17.78;100.00;93691.31;5057344;28;20209;-59
2022/08/02 04:14:26;;;;;;;1999.90;999.90;;;;;;;17.81;100.00;93690.34;5056883;28;20185;-59
2022/08/02 04:16:56;;;;;;;1999.90;999.90;;;;;;;17.91;100.00;93688.16;5057296;28;20212;-72
2022/08/02 04:19:39;;;;;;;1999.90;999.90;;;;;;;18.36;100.00;93678.94;5057539;28;20193;-74
2022/08/02 04:22:09;;;;;;;1999.90;999.90;;;;;;;18.71;100.00;93712.50;5056848;28;20232;-76
2022/08/02 04:24:40;;;;;;;1999.90;999.90;;;;;;;19.00;100.00;93767.47;5056873;28;20193;-73
2022/08/02 04:27:08;;;;;;;1999.90;999.90;;;;;;;19.21;100.00;93840.78;5057495;28;20185;-77
2022/08/02 04:29:35;;;;;;;1999.90;999.90;;;;;;;19.12;100.00;93954.47;5056999;28;20185;-78
2022/08/02 04:32:02;;;;;;;1999.90;999.90;;;;;;;19.04;100.00;94019.81;5057178;28;20550;-77
2022/08/02 04:34:28;;;;;;;1999.90;999.90;;;;;;;18.99;100.00;94062.06;5056792;28;20189;-71
2022/08/02 04:36:53;;;;;;;1999.90;999.90;;;;;;;19.03;100.00;94090.28;5056728;28;20204;-61
2022/08/02 04:39:19;;;;;;;1999.90;999.90;;;;;;;19.01;100.00;94114.88;5055797;28;20256;-78
2022/08/02 04:41:48;;;;;;;1999.90;999.90;;;;;;;19.04;100.00;94125.00;5073443;28;20208;-75
2022/08/02 04:44:13;;;;;;;1999.90;999.90;;;;;;;19.08;100.00;94147.66;5056886;28;20192;-83
2022/08/02 04:46:40;;;;;;;1999.90;999.90;;;;;;;19.11;100.00;94157.78;5073236;28;20185;-75
2022/08/02 04:49:05;;;;;;;1999.90;999.90;;;;;;;19.15;100.00;94163.84;5056916;28;20268;-76
2022/08/02 04:51:35;;;;;;;1999.90;999.90;;;;;;;19.22;100.00;94180.81;5056577;28;20216;-88
2022/08/02 04:54:02;;;;;;;1999.90;999.90;;;;;;;19.34;100.00;94198.31;5056456;28;20220;-60
2022/08/02 04:56:28;;;;;;;1999.90;999.90;;;;;;;19.35;100.00;94222.00;5056414;28;20188;-68
2022/08/02 04:58:53;;;;;;;1999.90;999.90;;;;;;;19.42;100.00;94243.72;5073181;28;20216;-67
2022/08/02 05:01:18;;;;;;;1999.90;999.90;;;;;;;19.45;100.00;94259.34;5056458;28;20184;-67
2022/08/02 05:03:44;;;;;;;1999.90;999.90;;;;;;;19.40;100.00;94271.88;5073208;28;20228;-68
2022/08/02 05:06:09;;;;;;;1999.90;999.90;;;;;;;19.52;100.00;94267.22;5073021;28;20185;-68
2022/08/02 05:08:34;;;;;;;1999.90;999.90;;;;;;;19.63;100.00;94270.09;5056655;28;20245;-68
2022/08/02 05:11:00;;;;;;;1999.90;999.90;;;;;;;19.70;100.00;94297.38;5072679;28;20184;-67
2022/08/02 05:13:25;;;;;;;1999.90;999.90;;;;;;;20.29;100.00;94289.38;5073169;28;20201;-64
2022/08/02 05:15:50;;;;;;;1999.90;999.90;;;;;;;21.36;100.00;94372.34;5072835;28;20317;-60
2022/08/02 05:18:16;;;;;;;1999.90;999.90;;;;;;;22.47;100.00;94504.25;5073150;28;20186;-61
2022/08/02 05:20:42;;;;;;;1999.90;999.90;;;;;;;23.40;100.00;94642.28;5056051;28;20196;-60
2022/08/02 05:23:07;;;;;;;1999.90;999.90;;;;;;;24.20;100.00;94784.41;5056196;28;20189;-61
2022/08/02 05:25:32;;;;;;;1999.90;999.90;;;;;;;24.82;100.00;94894.88;5055906;28;20189;-60
2022/08/02 05:27:58;;;;;;;1999.90;999.90;;;;;;;25.34;100.00;94988.16;5072902;28;20177;-61
2022/08/02 05:30:23;;;;;;;1999.90;999.90;;;;;;;25.27;100.00;95027.78;5056037;28;20200;-61
2022/08/02 05:32:52;;;;;;;1999.90;999.90;;;;;;;25.41;100.00;95060.38;5055941;28;20208;-60
2022/08/02 05:35:23;;;;;;;1999.90;999.90;;;;;;;25.65;100.00;95085.06;5055977;28;20185;-60
2022/08/02 05:37:50;;;;;;;1999.90;999.90;;;;;;;25.94;100.00;95104.13;5056138;28;20185;-60
2022/08/02 05:40:16;;;;;;;1999.90;999.90;;;;;;;26.50;100.00;95131.53;5056374;28;20216;-60
2022/08/02 05:42:42;;;;;;;1999.90;999.90;;;;;;;27.79;100.00;95204.94;5055767;28;20181;-61
2022/08/02 05:45:08;;;;;;;1999.90;999.90;;;;;;;27.62;100.00;95414.84;5055638;28;20192;-61
2022/08/02 05:47:34;;;;;;;1999.90;999.90;;;;;;;27.66;100.00;95443.41;5056092;28;20188;-60
2022/08/02 05:49:59;;;;;;;1999.90;999.90;;;;;;;28.50;100.00;95452.31;5056377;28;20189;-59
2022/08/02 05:52:35;;;;;;;1999.90;999.90;;;;;;;28.71;100.00;95478.78;5076209;28;20275;-65
2022/08/02 05:55:06;;;;;;;1999.90;999.90;;;;;;;29.45;100.00;95513.84;5059300;28;20185;-61
2022/08/02 05:57:50;;;;;;;1999.90;999.90;;;;;;;29.68;100.00;95531.38;5059217;28;20181;-65
2022/08/02 06:00:16;;;;;;;1999.90;999.90;;;;;;;30.79;100.00;95548.66;5059181;28;20169;-65
2022/08/02 06:02:49;;;;;;;1999.90;999.90;;;;;;;31.94;88.54;95571.63;5059556;28;20185;-62
2022/08/02 06:05:19;;;;;;;1999.90;999.90;;;;;;;32.39;80.42;95583.69;5059268;28;20239;-65
2022/08/02 06:07:46;;;;;;;1999.90;999.90;;;;;;;33.77;70.35;95594.97;5059790;28;20185;-76
2022/08/02 06:10:13;;;;;;;1999.90;999.90;;;;;;;33.23;70.49;95603.38;5059062;28;20223;-63
2022/08/02 06:12:48;;;;;;;1999.90;999.90;;;;;;;32.16;75.25;95598.75;5058823;28;20204;-60
2022/08/02 06:15:15;;;;;;;1999.90;999.90;;;;;;;33.05;70.51;95605.06;5059559;28;20204;-62
2022/08/02 06:17:41;;;;;;;1999.90;999.90;;;;;;;33.28;69.40;95605.31;5059087;28;20193;-60
2022/08/02 06:20:09;;;;;;;1999.90;999.90;;;;;;;33.16;67.09;95610.47;5058797;28;20196;-60
2022/08/02 06:22:36;;;;;;;1999.90;999.90;;;;;;;33.30;67.55;95620.50;5076660;28;20324;-60
2022/08/02 06:25:02;;;;;;;1999.90;999.90;;;;;;;32.86;67.45;95621.41;5058765;28;20180;-57
2022/08/02 06:27:29;;;;;;;1999.90;999.90;;;;;;;32.69;68.29;95615.28;5059228;28;20184;-76
2022/08/02 06:29:55;;;;;;;1999.90;999.90;;;;;;;33.05;66.15;95612.78;5058993;28;20219;-61
2022/08/02 06:32:20;;;;;;;1999.90;999.90;;;;;;;34.12;63.43;95619.16;5058765;28;20244;-66
2022/08/02 06:34:46;;;;;;;1999.90;999.90;;;;;;;35.02;54.73;95625.53;5059312;28;20184;-63
2022/08/02 06:37:38;;;;;;;1999.90;999.90;;;;;;;34.20;58.27;95625.66;5058366;28;20188;-60
2022/08/02 06:40:24;;;;;;;1999.90;999.90;;;;;;;33.90;60.55;95619.69;5058593;28;20188;-59
2022/08/02 06:42:55;;;;;;;1999.90;999.90;;;;;;;34.56;56.28;95618.03;5076498;28;20192;-61
2022/08/02 06:45:21;;;;;;;1999.90;999.90;;;;;;;34.78;54.75;95612.50;5058812;28;20212;-56
2022/08/02 06:47:46;;;;;;;1999.90;999.90;;;;;;;34.23;57.66;95613.94;5058956;28;20213;-57
2022/08/02 06:50:12;;;;;;;1999.90;999.90;;;;;;;34.53;54.67;95608.56;5058607;28;20197;-58
2022/08/02 06:52:37;;;;;;;1999.90;999.90;;;;;;;34.39;57.12;95612.03;5058140;28;20239;-59
2022/08/02 06:55:04;;;;;;;1999.90;999.90;;;;;;;35.16;52.43;95618.41;5058759;28;20181;-55
2022/08/02 06:57:30;;;;;;;1999.90;999.90;;;;;;;34.88;53.05;95612.78;5058342;28;20189;-51
2022/08/02 06:59:57;;;;;;;1999.90;999.90;;;;;;;34.30;58.17;95618.16;5058232;28;20177;-50
2022/08/02 07:02:23;;;;;;;1999.90;999.90;;;;;;;33.70;60.78;95613.44;5057425;28;20257;-54
2022/08/02 07:04:48;;;;;;;1999.90;999.90;;;;;;;33.59;58.80;95613.69;5058739;28;20185;-66
2022/08/02 07:07:14;;;;;;;1999.90;999.90;;;;;;;33.05;63.20;95613.56;5057937;28;20216;-70
2022/08/02 07:09:39;;;;;;;1999.90;999.90;;;;;;;32.16;65.44;95615.72;5058077;28;20258;-71
2022/08/02 07:12:05;;;;;;;1999.90;999.90;;;;;;;32.34;65.88;95615.66;5075031;28;20189;-73
2022/08/02 07:14:30;;;;;;;1999.90;999.90;;;;;;;33.50;62.54;95605.63;5058127;28;20189;-68
2022/08/02 07:16:57;;;;;;;1999.90;999.90;;;;;;;35.19;54.13;95605.94;5058258;28;20177;-65
2022/08/02 07:19:22;;;;;;;1999.90;999.90;;;;;;;35.07;51.25;95610.44;5058543;28;20174;-65
2022/08/02 07:21:47;;;;;;;1999.90;999.90;;;;;;;35.87;49.44;95610.56;5057938;28;20271;-51
2022/08/02 07:24:13;;;;;;;1999.90;999.90;;;;;;;36.37;50.06;95615.41;5058586;28;20180;-61
2022/08/02 07:26:38;;;;;;;1999.90;999.90;;;;;;;37.49;45.87;95619.41;5057770;28;20207;-61
2022/08/02 07:29:04;;;;;;;1999.90;999.90;;;;;;;37.06;44.67;95616.88;5074603;28;20185;-62
2022/08/02 07:31:30;;;;;;;1999.90;999.90;;;;;;;36.47;45.39;95609.91;5075002;28;20272;-63
2022/08/02 07:33:55;;;;;;;1999.90;999.90;;;;;;;37.45;45.09;95607.66;5057756;28;20215;-58
2022/08/02 07:36:20;;;;;;;1999.90;999.90;;;;;;;37.99;42.28;95603.97;5058171;28;20245;-57
2022/08/02 07:38:46;;;;;;;1999.90;999.90;;;;;;;37.51;42.21;95610.28;5057704;28;20193;-46
2022/08/02 07:41:11;;;;;;;1999.90;999.90;;;;;;;37.28;41.29;95598.97;5057810;28;20181;-75
2022/08/02 07:43:37;;;;;;;1999.90;999.90;;;;;;;36.68;44.17;95599.06;5057711;28;20237;-65
2022/08/02 07:46:02;;;;;;;1999.90;999.90;;;;;;;37.27;43.13;95603.16;5074085;28;20274;-61
2022/08/02 07:48:27;;;;;;;1999.90;999.90;;;;;;;37.59;41.75;95593.88;5057904;28;20189;-66
2022/08/02 07:50:53;;;;;;;1999.90;999.90;;;;;;;38.21;39.87;95605.94;5074686;28;20178;-64
2022/08/02 07:53:18;;;;;;;1999.90;999.90;;;;;;;38.31;37.94;95601.06;5058152;28;20205;-66
2022/08/02 07:55:44;;;;;;;1999.90;999.90;;;;;;;38.13;38.64;95596.63;5057173;28;20187;-66
2022/08/02 07:58:10;;;;;;;1999.90;999.90;;;;;;;37.70;38.75;95599.94;5057360;28;20185;-57
2022/08/02 08:00:35;;;;;;;1999.90;999.90;;;;;;;37.75;40.34;95590.41;5057483;28;20284;-67
2022/08/02 08:03:01;;;;;;;1999.90;999.90;;;;;;;37.86;38.40;95592.81;5074213;28;20204;-68
2022/08/02 08:05:26;;;;;;;1999.90;999.90;;;;;;;37.40;40.96;95590.75;5057159;28;20180;-66
2022/08/02 08:07:52;;;;;;;1999.90;999.90;;;;;;;37.55;39.21;95594.28;5057318;28;20185;-68
2022/08/02 08:10:17;;;;;;;1999.90;999.90;;;;;;;36.99;40.20;95594.09;5074284;28;20288;-69
2022/08/02 08:12:43;;;;;;;1999.90;999.90;;;;;;;37.38;40.22;95591.31;5056793;28;20209;-65
2022/08/02 08:15:09;;;;;;;1999.90;999.90;;;;;;;37.38;40.09;95585.63;5075200;28;20173;-71
2022/08/02 08:17:36;;;;;;;1999.90;999.90;;;;;;;37.70;38.20;95588.53;5057058;28;20280;-66
2022/08/02 08:20:03;;;;;;;1999.90;999.90;;;;;;;38.78;37.37;95592.31;5121437;22;20216;-62
2022/08/02 08:22:29;;;;;;;1999.90;999.90;;;;;;;38.95;37.51;95586.63;5077393;28;20289;-65
2022/08/02 08:24:54;;;;;;;1999.90;999.90;;;;;;;37.59;39.40;95583.25;5094796;28;20215;-63
2022/08/02 08:27:21;;;;;;;1999.90;999.90;;;;;;;35.61;43.84;95582.44;5076937;28;20180;-61
2022/08/02 08:29:48;;;;;;;1999.90;999.90;;;;;;;33.89;50.04;95589.81;5077322;28;20187;-61
2022/08/02 08:32:13;;;;;;;1999.90;999.90;;;;;;;34.59;48.98;95583.59;5076847;28;20264;-62
2022/08/02 08:34:39;;;;;;;1999.90;999.90;;;;;;;35.38;47.15;95580.84;5076627;28;20270;-62
2022/08/02 08:37:05;;;;;;;1999.90;999.90;;;;;;;36.46;44.77;95582.75;5077269;28;20212;-64
2022/08/02 08:39:30;;;;;;;1999.90;999.90;;;;;;;36.66;41.72;95584.63;5076846;28;20184;-63
2022/08/02 08:41:55;;;;;;;1999.90;999.90;;;;;;;37.38;40.08;95579.91;5076666;28;20184;-64
2022/08/02 08:44:21;;;;;;;1999.90;999.90;;;;;;;37.91;38.20;95580.41;5094668;28;20244;-60
2022/08/02 08:46:48;;;;;;;1999.90;999.90;;;;;;;38.53;37.51;95585.88;5076462;28;20180;-61
2022/08/02 08:49:19;;;;;;;1999.90;999.90;;;;;;;38.09;36.98;95579.16;5076781;28;20189;-61
2022/08/02 08:51:45;;;;;;;1999.90;999.90;;;;;;;38.58;37.22;95579.19;5076884;28;20189;-60
2022/08/02 08:54:15;;;;;;;1999.90;999.90;;;;;;;38.90;36.40;95584.00;5076812;28;20277;-59
2022/08/02 08:56:41;;;;;;;1999.90;999.90;;;;;;;39.24;36.22;95581.94;5076850;28;20184;-61
2022/08/02 08:59:07;;;;;;;1999.90;999.90;;;;;;;38.62;35.70;95584.47;5076470;28;20218;-62
2022/08/02 09:01:33;;;;;;;1999.90;999.90;;;;;;;39.13;36.17;95582.44;5076487;28;20177;-61
2022/08/02 09:03:58;;;;;;;1999.90;999.90;;;;;;;39.97;33.14;95576.44;5076230;28;20238;-62
2022/08/02 09:06:24;;;;;;;1999.90;999.90;;;;;;;40.02;32.61;95578.25;5076157;28;20180;-64
2022/08/02 09:08:50;;;;;;;1999.90;999.90;;;;;;;40.29;32.84;95579.00;5081890;28;20260;-63
2022/08/02 09:11:17;;;;;;;1999.90;999.90;;;;;;;40.23;32.35;95576.41;5114684;28;20211;-59
2022/08/02 09:13:59;;;;;;;1999.90;999.90;;;;;;;41.07;32.09;95576.53;5096537;28;20211;-63
2022/08/02 09:16:39;;;;;;;1999.90;999.90;;;;;;;40.65;30.99;95573.25;5096935;28;20274;-66
2022/08/02 09:19:18;;;;;;;1999.90;999.90;;;;;;;38.56;35.30;95581.84;5113910;28;20186;-62
2022/08/02 09:21:44;;;;;;;1999.90;999.90;;;;;;;39.08;35.26;95580.56;5096645;28;20194;-68
2022/08/02 09:24:21;;;;;;;1999.90;999.90;;;;;;;38.92;35.33;95579.22;5096155;28;20183;-60
2022/08/02 09:26:47;;;;;;;1999.90;999.90;;;;;;;39.50;33.77;95579.75;5096491;28;20175;-63
2022/08/02 09:29:14;;;;;;;1999.90;999.90;;;;;;;39.07;34.04;95584.78;5096511;28;20215;-62
2022/08/02 09:31:39;;;;;;;1999.90;999.90;;;;;;;39.64;34.11;95584.50;5096132;28;20192;-61
2022/08/02 09:34:05;;;;;;;1999.90;999.90;;;;;;;38.14;35.18;95581.03;5096493;28;20263;-59
2022/08/02 09:36:42;;;;;;;1999.90;999.90;;;;;;;38.57;36.03;95583.38;5096155;28;20190;-59
2022/08/02 09:39:11;;;;;;;1999.90;999.90;;;;;;;38.92;34.25;95584.94;5096169;28;20183;-58
2022/08/02 09:41:44;;;;;;;1999.90;999.90;;;;;;;37.38;36.56;95584.84;5096366;28;20215;-59
2022/08/02 09:44:11;;;;;;;1999.90;999.90;;;;;;;36.22;40.64;95586.16;5096163;28;20179;-59
2022/08/02 09:46:39;;;;;;;1999.90;999.90;;;;;;;35.83;40.84;95583.84;5095721;28;20204;-59
2022/08/02 09:49:12;;;;;;;1999.90;999.90;;;;;;;36.85;39.27;95587.84;5096130;28;20199;-62
2022/08/02 09:51:47;;;;;;;1999.90;999.90;;;;;;;37.97;35.84;95583.03;5113544;28;20238;-58
2022/08/02 09:54:19;;;;;;;1999.90;999.90;;;;;;;37.91;35.94;95586.09;5096457;28;20219;-62
2022/08/02 09:56:48;;;;;;;1999.90;999.90;;;;;;;38.46;35.43;95589.53;5095734;28;20194;-60
2022/08/02 09:59:14;;;;;;;1999.90;999.90;;;;;;;39.14;34.59;95583.94;5096328;28;20215;-59
2022/08/02 10:01:41;;;;;;;1999.90;999.90;;;;;;;37.48;37.20;95583.69;5096323;28;20187;-59
2022/08/02 10:04:10;;;;;;;1999.90;999.90;;;;;;;36.71;38.78;95580.88;5113023;28;20279;-59
2022/08/02 10:06:39;;;;;;;1999.90;999.90;;;;;;;38.17;36.88;95582.72;5095693;28;20184;-66
2022/08/02 10:09:06;;;;;;;1999.90;999.90;;;;;;;38.47;35.08;95579.63;5095530;28;20211;-58
2022/08/02 10:11:33;;;;;;;1999.90;999.90;;;;;;;39.22;35.49;95587.47;5095540;28;20179;-58
2022/08/02 10:14:01;;;;;;;1999.90;999.90;;;;;;;39.45;34.01;95583.59;5096095;28;20214;-58
2022/08/02 10:16:26;;;;;;;1999.90;999.90;;;;;;;38.64;32.80;95582.53;5095548;28;20208;-59
2022/08/02 10:18:54;;;;;;;1999.90;999.90;;;;;;;39.19;33.15;95579.31;5095804;28;20257;-57
2022/08/02 10:21:29;;;;;;;1999.90;999.90;;;;;;;39.81;31.97;95581.63;5095597;28;20287;-58
2022/08/02 10:24:03;;;;;;;1999.90;999.90;;;;;;;38.54;32.88;95578.84;5095932;28;20240;-58
2022/08/02 10:26:30;;;;;;;1999.90;999.90;;;;;;;37.67;35.52;95577.50;5096045;28;20183;-63
2022/08/02 10:28:55;;;;;;;1999.90;999.90;;;;;;;37.74;35.94;95582.41;5095644;28;20292;-55
2022/08/02 10:31:26;;;;;;;1999.90;999.90;;;;;;;38.07;34.25;95581.09;5095475;28;20234;-57
2022/08/02 10:33:54;;;;;;;1999.90;999.90;;;;;;;37.83;34.47;95576.09;5095702;28;20303;-58
2022/08/02 10:36:22;;;;;;;1999.90;999.90;;;;;;;37.12;36.54;95573.91;5096212;28;20228;-57
2022/08/02 10:38:48;;;;;;;1999.90;999.90;;;;;;;37.79;36.98;95567.91;5098824;28;20184;-58
2022/08/02 10:41:14;;;;;;;1999.90;999.90;;;;;;;36.87;36.90;95562.41;5098613;28;20187;-59
2022/08/02 10:43:41;;;;;;;1999.90;999.90;;;;;;;35.58;39.21;95568.59;5098650;28;20183;-62
2022/08/02 10:46:23;;;;;;;1999.90;999.90;;;;;;;35.48;40.86;95570.44;5098692;28;20285;-58
2022/08/02 10:49:02;;;;;;;1999.90;999.90;;;;;;;37.69;35.90;95561.31;5116861;28;20183;-59
2022/08/02 10:52:01;;;;;;;1999.90;999.90;;;;;;;36.38;37.96;95559.97;5098947;28;20264;-59
2022/08/02 10:54:37;;;;;;;1999.90;999.90;;;;;;;36.51;37.50;95556.16;5098397;28;20201;-58
2022/08/02 10:57:14;;;;;;;1999.90;999.90;;;;;;;36.69;38.10;95566.41;5099209;28;20179;-58
2022/08/02 10:59:39;;;;;;;1999.90;999.90;;;;;;;37.72;36.33;95545.91;5098768;28;20183;-58